Time;durP1;ratioP1;P1;durP2;ratioP2;P2;SDS_P1;SDS_P2;PMS_P1;PMS_P2;Temp;Humidity;BMP_temperature;BMP_pressure;BME280_temperature;BME280_humidity;BME280_pressure;Samples;Min_cycle;Max_cycle;Signal;HPM_P1;HPM_P2
2023/02/10 00:01:10;;;;;;;;;;;;;;;28.05;16.74;103017.84;5064719;28;1023;-26
2023/02/10 00:03:35;;;;;;;;;;;;;;;27.97;16.97;103027.50;5078357;28;1130;-29
2023/02/10 00:06:01;;;;;;;;;;;;;;;27.78;16.89;103030.09;5060444;28;1905;-27
2023/02/10 00:08:26;;;;;;;;;;;;;;;27.42;17.46;103027.63;5077875;28;1036;-28
2023/02/10 00:10:51;;;;;;;;;;;;;;;27.71;17.57;103024.34;5077840;28;1058;-29
2023/02/10 00:13:17;;;;;;;;;;;;;;;27.73;17.62;103023.19;5078341;28;1063;-27
2023/02/10 00:15:42;;;;;;;;;;;;;;;27.66;17.25;103030.09;5077449;28;934;-30
2023/02/10 00:18:08;;;;;;;;;;;;;;;27.80;17.29;103025.38;5078097;28;1016;-28
2023/02/10 00:20:33;;;;;;;;;;;;;;;27.91;16.79;103027.16;5077623;28;1027;-26
2023/02/10 00:22:58;;;;;;;;;;;;;;;27.72;17.20;103018.78;5077309;28;1789;-27
2023/02/10 00:25:24;;;;;;;;;;;;;;;27.69;17.43;103019.06;5077440;28;1914;-30
2023/02/10 00:27:49;;;;;;;;;;;;;;;27.06;18.31;103011.69;5077805;28;1206;-29
2023/02/10 00:30:14;;;;;;;;;;;;;;;27.06;18.29;103014.38;5077682;28;1151;-28
2023/02/10 00:32:40;;;;;;;;;;;;;;;27.51;17.87;103013.31;5077620;28;1056;-26
2023/02/10 00:35:06;;;;;;;;;;;;;;;26.81;18.65;103008.28;5077309;28;1126;-26
2023/02/10 00:37:31;;;;;;;;;;;;;;;27.32;18.38;102996.00;5077335;28;1175;-26
2023/02/10 00:39:56;;;;;;;;;;;;;;;27.84;17.55;102987.09;5077647;28;1115;-28
2023/02/10 00:42:22;;;;;;;;;;;;;;;27.84;17.24;102999.78;5077642;28;1047;-26
2023/02/10 00:44:47;;;;;;;;;;;;;;;27.83;17.55;103000.75;5076672;28;1979;-28
2023/02/10 00:47:12;;;;;;;;;;;;;;;27.33;18.30;102995.00;5077258;28;1035;-26
2023/02/10 00:49:37;;;;;;;;;;;;;;;27.54;18.22;102993.31;5077118;28;1191;-27
2023/02/10 00:52:03;;;;;;;;;;;;;;;27.70;17.76;102985.63;5077543;28;1028;-27
2023/02/10 00:54:28;;;;;;;;;;;;;;;27.92;17.60;102993.72;5077428;28;1167;-29
2023/02/10 00:56:53;;;;;;;;;;;;;;;27.72;17.87;102989.06;5077191;28;1147;-27
2023/02/10 00:59:19;;;;;;;;;;;;;;;27.99;17.55;103003.00;5076631;28;983;-29
2023/02/10 01:01:45;;;;;;;;;;;;;;;27.93;17.27;103003.53;5076876;28;1119;-27
2023/02/10 01:04:10;;;;;;;;;;;;;;;27.48;17.83;103003.66;5077321;28;1126;-26
2023/02/10 01:06:35;;;;;;;;;;;;;;;27.46;17.94;102992.09;5076764;28;1897;-29
2023/02/10 01:09:01;;;;;;;;;;;;;;;27.39;18.17;102993.63;5077024;28;1159;-27
2023/02/10 01:11:26;;;;;;;;;;;;;;;27.73;17.76;102995.28;5076865;28;1128;-27
2023/02/10 01:13:51;;;;;;;;;;;;;;;28.05;17.60;102996.19;5076876;28;1009;-30
2023/02/10 01:16:17;;;;;;;;;;;;;;;27.54;18.37;102993.31;5076774;28;1119;-31
2023/02/10 01:18:42;;;;;;;;;;;;;;;27.89;17.67;102989.44;5076818;28;1098;-27
2023/02/10 01:21:08;;;;;;;;;;;;;;;28.07;17.24;102988.81;5076293;28;1120;-27
2023/02/10 01:23:33;;;;;;;;;;;;;;;27.59;17.69;102980.25;5076640;28;1144;-29
2023/02/10 01:25:59;;;;;;;;;;;;;;;27.32;18.40;102984.31;5076809;28;1902;-30
2023/02/10 01:28:24;;;;;;;;;;;;;;;26.65;19.04;102982.53;5076224;28;1109;-31
2023/02/10 01:30:49;;;;;;;;;;;;;;;27.28;18.68;102983.72;5076416;28;1055;-27
2023/02/10 01:33:14;;;;;;;;;;;;;;;27.87;17.89;102976.03;5076803;28;1222;-31
2023/02/10 01:35:40;;;;;;;;;;;;;;;27.63;18.12;102987.97;5076299;28;1007;-27
2023/02/10 01:38:05;;;;;;;;;;;;;;;27.24;18.51;102985.81;5076354;28;1114;-29
2023/02/10 01:40:31;;;;;;;;;;;;;;;27.71;17.74;102987.31;5076285;28;1092;-29
2023/02/10 01:42:56;;;;;;;;;;;;;;;27.37;18.18;102982.94;5076047;28;1106;-26
2023/02/10 01:45:28;;;;;;;;;;;;;;;27.34;18.46;102985.06;5076159;28;1890;-27
2023/02/10 01:47:54;;;;;;;;;;;;;;;27.30;18.36;102981.75;5075786;28;1067;-31
2023/02/10 01:50:20;;;;;;;;;;;;;;;27.68;17.95;102990.28;5057898;28;1088;-25
2023/02/10 01:52:45;;;;;;;;;;;;;;;27.56;18.06;102986.75;5058159;28;1071;-29
2023/02/10 01:55:11;;;;;;;;;;;;;;;27.56;18.25;102992.16;5075042;28;1432;-29
2023/02/10 01:57:37;;;;;;;;;;;;;;;27.63;18.08;102985.25;5058106;28;925;-28
2023/02/10 02:00:03;;;;;;;;;;;;;;;27.57;18.07;102985.78;5058181;28;1067;-28
2023/02/10 02:02:28;;;;;;;;;;;;;;;27.66;17.87;102986.00;5076595;28;1114;-28
2023/02/10 02:04:54;;;;;;;;;;;;;;;27.52;18.16;102985.31;5076310;28;1893;-30
2023/02/10 02:07:21;;;;;;;;;;;;;;;26.65;19.19;102971.72;5076197;28;1059;-32
2023/02/10 02:09:46;;;;;;;;;;;;;;;27.05;18.60;102973.00;5075793;28;1110;-27
2023/02/10 02:12:24;;;;;;;;;;;;;;;27.55;18.07;102965.25;5075879;28;1008;-29
2023/02/10 02:15:25;;;;;;;;;;;;;;;27.09;18.56;102958.25;5058276;28;1160;-28
2023/02/10 02:18:02;;;;;;;;;;;;;;;27.49;18.58;102966.66;5004810;28;1169;-26
2023/02/10 02:20:43;;;;;;;;;;;;;;;27.98;17.92;102958.00;5038022;28;1148;-26
2023/02/10 02:23:09;;;;;;;;;;;;;;;27.72;17.89;102959.31;5075535;28;1051;-30
2023/02/10 02:25:49;;;;;;;;;;;;;;;27.56;18.15;102958.88;5075730;28;1973;-26
2023/02/10 02:28:18;;;;;;;;;;;;;;;27.10;18.47;102959.09;5075721;28;1111;-27
2023/02/10 02:30:45;;;;;;;;;;;;;;;27.14;18.73;102960.56;5057981;28;1148;-29
2023/02/10 02:33:13;;;;;;;;;;;;;;;27.95;18.06;102960.97;5058013;28;1040;-27
2023/02/10 02:36:02;;;;;;;;;;;;;;;27.49;18.21;102964.81;5057658;28;1024;-31
2023/02/10 02:38:28;;;;;;;;;;;;;;;27.14;18.64;102966.81;5067516;28;1012;-26
2023/02/10 02:40:55;;;;;;;;;;;;;;;27.64;18.45;102959.09;5075845;28;1078;-27
2023/02/10 02:43:20;;;;;;;;;;;;;;;27.60;17.71;102965.72;5076026;28;1122;-29
2023/02/10 02:45:51;;;;;;;;;;;;;;;27.43;18.17;102961.75;5058314;28;1905;-27
2023/02/10 02:48:22;;;;;;;;;;;;;;;27.67;18.10;102956.09;5075119;28;881;-27
2023/02/10 02:51:00;;;;;;;;;;;;;;;27.80;17.86;102957.75;5075705;28;1194;-29
2023/02/10 02:53:25;;;;;;;;;;;;;;;27.19;18.40;102947.53;5057627;28;1163;-27
2023/02/10 02:55:52;;;;;;;;;;;;;;;27.62;17.89;102958.34;5075705;28;1024;-28
2023/02/10 02:58:20;;;;;;;;;;;;;;;27.70;18.29;102955.88;5057629;28;1140;-30
2023/02/10 03:00:45;;;;;;;;;;;;;;;27.75;18.03;102961.75;5057128;28;1075;-29
2023/02/10 03:03:11;;;;;;;;;;;;;;;27.89;17.04;102962.38;5058226;28;1136;-26
2023/02/10 03:05:36;;;;;;;;;;;;;;;27.73;17.57;102954.72;5057713;28;1967;-28
2023/02/10 03:08:01;;;;;;;;;;;;;;;28.63;17.23;102956.81;5078683;28;1071;-30
2023/02/10 03:10:27;;;;;;;;;;;;;;;28.22;17.13;102940.59;5079151;28;1167;-28
2023/02/10 03:12:52;;;;;;;;;;;;;;;27.78;17.41;102947.06;5079182;28;885;-30
2023/02/10 03:15:17;;;;;;;;;;;;;;;27.66;17.61;102940.03;5079311;28;1092;-26
2023/02/10 03:17:42;;;;;;;;;;;;;;;27.80;17.77;102944.25;5079141;28;1043;-27
2023/02/10 03:20:08;;;;;;;;;;;;;;;27.87;17.68;102945.44;5078844;28;1169;-32
2023/02/10 03:22:33;;;;;;;;;;;;;;;28.05;17.72;102944.78;5078829;28;1347;-26
2023/02/10 03:24:59;;;;;;;;;;;;;;;27.62;17.77;102937.59;5078655;28;1961;-27
2023/02/10 03:27:24;;;;;;;;;;;;;;;27.77;17.85;102931.84;5078553;28;914;-27
2023/02/10 03:29:49;;;;;;;;;;;;;;;27.71;17.84;102929.69;5079036;28;1072;-27
2023/02/10 03:32:15;;;;;;;;;;;;;;;27.54;17.84;102929.28;5079282;28;1047;-26
2023/02/10 03:34:41;;;;;;;;;;;;;;;27.62;17.74;102934.88;5078832;28;1215;-27
2023/02/10 03:37:06;;;;;;;;;;;;;;;27.80;17.86;102928.00;5078619;28;920;-27
2023/02/10 03:39:31;;;;;;;;;;;;;;;27.77;17.83;102926.44;5078776;28;1162;-26
2023/02/10 03:41:56;;;;;;;;;;;;;;;27.64;17.97;102921.22;5078598;28;1176;-30
2023/02/10 03:44:22;;;;;;;;;;;;;;;27.47;18.02;102912.75;5078691;28;1214;-27
2023/02/10 03:46:47;;;;;;;;;;;;;;;27.25;18.13;102921.81;5078392;28;1909;-26
2023/02/10 03:49:12;;;;;;;;;;;;;;;27.66;17.79;102910.28;5078696;28;1073;-27
2023/02/10 03:51:38;;;;;;;;;;;;;;;27.59;17.77;102921.59;5078250;28;1108;-26
2023/02/10 03:54:03;;;;;;;;;;;;;;;27.33;17.73;102907.66;5078100;28;1059;-26
2023/02/10 03:56:28;;;;;;;;;;;;;;;27.30;18.31;102906.06;5078123;28;1162;-29
2023/02/10 03:58:53;;;;;;;;;;;;;;;27.31;18.05;102896.13;5078086;28;1171;-26
2023/02/10 04:01:19;;;;;;;;;;;;;;;26.91;18.33;102890.38;5078085;28;896;-28
2023/02/10 04:03:44;;;;;;;;;;;;;;;27.13;18.23;102894.88;5078421;28;1072;-27
2023/02/10 04:06:09;;;;;;;;;;;;;;;26.85;18.86;102891.78;5078065;28;1913;-25
2023/02/10 04:08:35;;;;;;;;;;;;;;;27.01;18.70;102894.06;5078172;28;1094;-29
2023/02/10 04:11:00;;;;;;;;;;;;;;;26.95;18.76;102891.84;5077554;28;1227;-28
2023/02/10 04:13:25;;;;;;;;;;;;;;;27.40;18.28;102895.34;5077375;28;1063;-29
2023/02/10 04:16:04;;;;;;;;;;;;;;;27.31;17.28;102894.25;5078179;28;1075;-28
2023/02/10 04:18:29;;;;;;;;;;;;;;;24.31;14.17;102893.25;5076889;28;1206;-23
2023/02/10 04:20:54;;;;;;;;;;;;;;;26.32;16.92;102889.81;5077317;28;1080;-25
2023/02/10 04:23:20;;;;;;;;;;;;;;;27.06;16.55;102890.13;5077467;28;1063;-25
2023/02/10 04:25:45;;;;;;;;;;;;;;;27.36;16.32;102894.72;5077336;28;1949;-27
2023/02/10 04:28:10;;;;;;;;;;;;;;;26.99;16.80;102889.75;5077497;28;1036;-28
2023/02/10 04:30:36;;;;;;;;;;;;;;;27.14;16.72;102893.03;5077460;28;1109;-25
2023/02/10 04:33:01;;;;;;;;;;;;;;;26.97;16.27;102894.44;5077586;28;1118;-26
2023/02/10 04:35:26;;;;;;;;;;;;;;;27.33;16.42;102892.31;5077429;28;1094;-28
2023/02/10 04:37:51;;;;;;;;;;;;;;;27.28;16.23;102899.94;5076837;28;901;-27
2023/02/10 04:40:17;;;;;;;;;;;;;;;27.21;16.12;102898.78;5077696;28;1005;-25
2023/02/10 04:42:42;;;;;;;;;;;;;;;27.19;16.18;102903.44;5077256;28;1052;-28
2023/02/10 04:45:07;;;;;;;;;;;;;;;27.24;16.38;102907.44;5077376;28;1901;-26
2023/02/10 04:47:33;;;;;;;;;;;;;;;27.74;14.77;102907.78;5076919;28;1068;-25
2023/02/10 04:49:58;;;;;;;;;;;;;;;24.06;14.11;102903.06;5076913;28;989;-27
2023/02/10 04:52:23;;;;;;;;;;;;;;;25.62;11.64;102909.66;5077290;28;1111;-27
2023/02/10 04:54:49;;;;;;;;;;;;;;;22.59;12.32;102896.72;5076569;28;1199;-25
2023/02/10 04:57:14;;;;;;;;;;;;;;;22.61;12.87;102901.06;5075779;28;1215;-26
2023/02/10 04:59:39;;;;;;;;;;;;;;;24.41;13.58;102913.16;5077385;28;1060;-25
2023/02/10 05:02:04;;;;;;;;;;;;;;;25.01;12.66;102909.72;5076866;28;1155;-28
2023/02/10 05:04:30;;;;;;;;;;;;;;;25.15;12.00;102907.81;5076508;28;1052;-28
2023/02/10 05:06:58;;;;;;;;;;;;;;;26.97;11.82;102903.41;5059823;28;2029;-27
2023/02/10 05:09:23;;;;;;;;;;;;;;;27.81;12.00;102903.53;5067365;28;946;-26
2023/02/10 05:11:48;;;;;;;;;;;;;;;26.24;13.78;102901.25;5076299;28;1096;-28
2023/02/10 05:14:14;;;;;;;;;;;;;;;25.19;15.47;102903.94;5076648;28;910;-29
2023/02/10 05:16:39;;;;;;;;;;;;;;;25.83;15.46;102898.16;5076687;28;1071;-25
2023/02/10 05:19:04;;;;;;;;;;;;;;;25.95;15.50;102897.22;5076724;28;1213;-28
2023/02/10 05:21:30;;;;;;;;;;;;;;;26.00;15.90;102899.53;5076258;28;1232;-29
2023/02/10 05:23:56;;;;;;;;;;;;;;;25.53;16.34;102898.59;5075100;28;1179;-28
2023/02/10 05:26:22;;;;;;;;;;;;;;;26.28;15.42;102897.28;5072402;28;1973;-26
2023/02/10 05:28:47;;;;;;;;;;;;;;;26.98;15.07;102906.94;5076534;28;1106;-28
2023/02/10 05:31:12;;;;;;;;;;;;;;;25.85;15.81;102886.31;5076423;28;1068;-28
2023/02/10 05:33:38;;;;;;;;;;;;;;;26.69;15.57;102897.63;5072927;28;976;-27
2023/02/10 05:36:03;;;;;;;;;;;;;;;26.48;16.19;102895.69;5072289;28;1472;-28
2023/02/10 05:38:29;;;;;;;;;;;;;;;26.87;15.66;102900.63;5074432;28;1951;-27
2023/02/10 05:40:54;;;;;;;;;;;;;;;26.64;16.34;102902.53;5075358;28;1919;-29
2023/02/10 05:43:19;;;;;;;;;;;;;;;26.35;16.37;102897.69;5070379;28;1876;-27
2023/02/10 05:45:45;;;;;;;;;;;;;;;26.81;16.50;102906.50;5075431;28;1953;-29
2023/02/10 05:48:10;;;;;;;;;;;;;;;26.25;16.67;102908.34;5075001;28;2178;-27
2023/02/10 05:50:36;;;;;;;;;;;;;;;26.41;16.37;102908.84;5075328;28;2041;-25
2023/02/10 05:53:01;;;;;;;;;;;;;;;26.31;16.67;102894.34;5075739;28;1139;-25
2023/02/10 05:55:26;;;;;;;;;;;;;;;26.52;16.53;102907.09;5075858;28;1047;-26
2023/02/10 05:57:52;;;;;;;;;;;;;;;26.76;16.91;102915.00;5075918;28;1063;-25
2023/02/10 06:00:17;;;;;;;;;;;;;;;26.55;16.40;102914.06;5075419;28;1228;-27
2023/02/10 06:02:42;;;;;;;;;;;;;;;26.24;17.41;102915.56;5064444;28;1508;-26
2023/02/10 06:05:08;;;;;;;;;;;;;;;27.85;16.17;102917.66;5070333;28;1902;-28
2023/02/10 06:07:33;;;;;;;;;;;;;;;26.27;17.38;102911.78;5072143;28;1230;-26
2023/02/10 06:09:58;;;;;;;;;;;;;;;26.41;17.21;102911.53;5072006;28;1370;-27
2023/02/10 06:12:24;;;;;;;;;;;;;;;26.73;16.90;102911.69;5070510;28;1139;-28
2023/02/10 06:14:49;;;;;;;;;;;;;;;27.05;16.61;102915.41;5070691;28;987;-27
2023/02/10 06:17:14;;;;;;;;;;;;;;;26.71;16.65;102914.53;5075010;28;1131;-30
2023/02/10 06:19:40;;;;;;;;;;;;;;;27.19;16.77;102915.13;5066405;28;1176;-31
2023/02/10 06:22:05;;;;;;;;;;;;;;;27.85;16.54;102926.63;5073593;28;2095;-27
2023/02/10 06:24:30;;;;;;;;;;;;;;;27.41;16.21;102921.34;5066030;28;1092;-27
2023/02/10 06:26:56;;;;;;;;;;;;;;;27.73;16.30;102922.28;5074903;28;1918;-28
2023/02/10 06:29:21;;;;;;;;;;;;;;;26.02;17.90;102916.44;5072417;28;975;-30
2023/02/10 06:31:47;;;;;;;;;;;;;;;26.25;17.42;102921.81;5071313;28;1508;-27
2023/02/10 06:34:12;;;;;;;;;;;;;;;26.78;17.13;102923.84;5070539;28;1072;-28
2023/02/10 06:36:37;;;;;;;;;;;;;;;26.74;16.59;102930.47;5069269;28;1091;-30
2023/02/10 06:39:03;;;;;;;;;;;;;;;25.47;18.38;102935.94;5075513;28;933;-30
2023/02/10 06:41:28;;;;;;;;;;;;;;;25.53;18.64;102940.84;5075926;28;1008;-31
2023/02/10 06:43:53;;;;;;;;;;;;;;;25.59;18.47;102932.28;5078200;28;1039;-30
2023/02/10 06:46:19;;;;;;;;;;;;;;;27.52;16.62;102928.56;5082090;28;1922;-25
2023/02/10 06:48:44;;;;;;;;;;;;;;;27.28;16.34;102929.66;5079477;28;1048;-27
2023/02/10 06:51:09;;;;;;;;;;;;;;;27.01;16.52;102921.06;5075206;28;1896;-28
2023/02/10 06:53:35;;;;;;;;;;;;;;;25.67;18.14;102920.97;5076331;28;905;-25
2023/02/10 06:56:01;;;;;;;;;;;;;;;27.39;16.38;102928.75;5078925;28;1465;-27
2023/02/10 06:58:26;;;;;;;;;;;;;;;27.33;16.14;102927.44;5078840;28;1020;-26
2023/02/10 07:00:51;;;;;;;;;;;;;;;25.67;18.00;102934.44;5078129;28;1180;-27
2023/02/10 07:03:17;;;;;;;;;;;;;;;26.81;16.89;102927.28;5066476;28;1199;-27
2023/02/10 07:05:42;;;;;;;;;;;;;;;26.87;16.88;102935.72;5078593;28;1909;-25
2023/02/10 07:08:07;;;;;;;;;;;;;;;26.69;17.22;102930.00;5078886;28;960;-27
2023/02/10 07:10:33;;;;;;;;;;;;;;;26.02;17.55;102930.81;5078345;28;1001;-28
2023/02/10 07:12:58;;;;;;;;;;;;;;;26.70;16.84;102930.84;5075746;28;996;-28
2023/02/10 07:15:23;;;;;;;;;;;;;;;26.73;17.13;102930.59;5060799;28;1167;-28
2023/02/10 07:17:50;;;;;;;;;;;;;;;25.54;18.47;102934.50;5063873;28;1021;-25
2023/02/10 07:20:16;;;;;;;;;;;;;;;25.50;18.74;102933.00;5065307;28;1203;-26
2023/02/10 07:22:41;;;;;;;;;;;;;;;26.15;18.23;102927.09;5069548;28;2116;-26
2023/02/10 07:25:06;;;;;;;;;;;;;;;26.56;17.36;102927.44;5073672;28;1914;-24
2023/02/10 07:27:32;;;;;;;;;;;;;;;26.90;16.83;102932.75;5078066;28;837;-25
2023/02/10 07:29:57;;;;;;;;;;;;;;;26.80;17.19;102929.09;5078578;28;1131;-28
2023/02/10 07:32:22;;;;;;;;;;;;;;;26.33;17.99;102923.94;5078188;28;1040;-26
2023/02/10 07:34:49;;;;;;;;;;;;;;;25.25;19.57;102929.50;5077761;28;981;-29
2023/02/10 07:37:14;;;;;;;;;;;;;;;25.40;19.54;102932.88;5077615;28;1158;-28
2023/02/10 07:39:40;;;;;;;;;;;;;;;27.10;17.90;102937.50;5077964;28;950;-25
2023/02/10 07:42:05;;;;;;;;;;;;;;;28.07;17.14;102929.28;5078011;28;1032;-30
2023/02/10 07:44:30;;;;;;;;;;;;;;;28.03;16.42;102941.38;5059934;28;1561;-27
2023/02/10 07:46:56;;;;;;;;;;;;;;;27.28;17.27;102932.38;5074729;28;1898;-28
2023/02/10 07:49:21;;;;;;;;;;;;;;;26.64;18.51;102935.75;5077428;28;1126;-26
2023/02/10 07:51:46;;;;;;;;;;;;;;;26.91;18.51;102925.50;5076468;28;2030;-27
2023/02/10 07:54:11;;;;;;;;;;;;;;;27.67;17.48;102942.59;5072409;28;1263;-25
2023/02/10 07:56:37;;;;;;;;;;;;;;;27.65;17.00;102901.31;5070911;28;1086;-33
2023/02/10 07:59:02;;;;;;;;;;;;;;;28.16;17.20;102938.44;5064531;28;964;-28
2023/02/10 08:01:27;;;;;;;;;;;;;;;27.77;17.05;102931.00;5077686;28;1171;-31
2023/02/10 08:03:53;;;;;;;;;;;;;;;27.14;17.87;102920.06;5076113;28;1116;-25
2023/02/10 08:06:21;;;;;;;;;;;;;;;27.37;18.24;102931.59;5076814;28;1897;-24
2023/02/10 08:08:46;;;;;;;;;;;;;;;28.42;17.19;102919.88;5077181;28;1091;-26
2023/02/10 08:11:11;;;;;;;;;;;;;;;28.56;17.30;102924.03;5077723;28;1353;-27
2023/02/10 08:13:37;;;;;;;;;;;;;;;28.31;17.09;102926.22;5077210;28;1028;-26
2023/02/10 08:16:07;;;;;;;;;;;;;;;27.71;17.11;102927.00;5076279;28;1018;-30
2023/02/10 08:18:33;;;;;;;;;;;;;;;27.37;18.12;102928.91;5069976;28;1081;-25
2023/02/10 08:20:58;;;;;;;;;;;;;;;26.80;18.76;102929.09;5082548;28;1717;-28
2023/02/10 08:23:24;;;;;;;;;;;;;;;27.98;17.85;102925.53;5065543;28;1183;-27
2023/02/10 08:25:50;;;;;;;;;;;;;;;28.52;17.23;102940.69;5076192;28;1951;-25
2023/02/10 08:28:16;;;;;;;;;;;;;;;28.89;16.74;102931.91;5076886;28;1210;-26
2023/02/10 08:30:41;;;;;;;;;;;;;;;29.15;16.62;102939.47;5074018;28;1527;-27
2023/02/10 08:33:07;;;;;;;;;;;;;;;28.02;16.90;102931.53;5066609;28;1223;-27
2023/02/10 08:35:32;;;;;;;;;;;;;;;27.58;17.52;102935.25;5068163;28;1132;-31
2023/02/10 08:37:57;;;;;;;;;;;;;;;27.50;17.61;102927.81;5075808;28;1111;-27
2023/02/10 08:40:22;;;;;;;;;;;;;;;27.49;17.76;102928.81;5077138;28;1071;-31
2023/02/10 08:42:48;;;;;;;;;;;;;;;27.18;18.45;102932.28;5077229;28;1032;-26
2023/02/10 08:45:13;;;;;;;;;;;;;;;28.33;17.82;102932.38;5076866;28;1905;-28
2023/02/10 08:47:39;;;;;;;;;;;;;;;28.01;17.31;102927.97;5066372;28;1055;-28
2023/02/10 08:50:04;;;;;;;;;;;;;;;27.74;17.12;102929.44;5074514;28;1234;-26
2023/02/10 08:52:29;;;;;;;;;;;;;;;27.66;16.91;102934.63;5071283;28;1797;-29
2023/02/10 08:54:56;;;;;;;;;;;;;;;27.55;17.12;102935.53;5077200;28;1024;-26
2023/02/10 08:57:21;;;;;;;;;;;;;;;27.47;17.33;102937.06;5076774;28;1123;-29
2023/02/10 08:59:46;;;;;;;;;;;;;;;27.45;17.42;102940.88;5054369;28;1172;-27
2023/02/10 09:02:12;;;;;;;;;;;;;;;27.55;17.51;102924.72;5076462;28;1041;-25
2023/02/10 09:04:37;;;;;;;;;;;;;;;27.45;17.18;102938.16;5075133;28;1159;-31
2023/02/10 09:07:03;;;;;;;;;;;;;;;27.63;17.30;102927.59;5073693;28;1957;-26
2023/02/10 09:09:29;;;;;;;;;;;;;;;27.74;17.40;102921.31;5075630;28;1053;-27
2023/02/10 09:11:54;;;;;;;;;;;;;;;27.60;17.36;102917.94;5075926;28;1287;-27
2023/02/10 09:14:20;;;;;;;;;;;;;;;27.55;17.92;102924.72;5075944;28;1353;-26
2023/02/10 09:16:45;;;;;;;;;;;;;;;27.41;18.27;102923.22;5076294;28;1317;-26
2023/02/10 09:19:10;;;;;;;;;;;;;;;27.73;17.51;102917.75;5075900;28;985;-28
2023/02/10 09:21:36;;;;;;;;;;;;;;;27.90;17.22;102912.69;5070017;28;1889;-27
2023/02/10 09:24:01;;;;;;;;;;;;;;;27.84;17.56;102915.94;5076396;28;1074;-28
2023/02/10 09:26:26;;;;;;;;;;;;;;;27.84;17.38;102911.38;5076147;28;1890;-29
2023/02/10 09:28:52;;;;;;;;;;;;;;;27.34;16.46;102912.09;5075626;28;1011;-26
2023/02/10 09:31:18;;;;;;;;;;;;;;;27.07;17.15;102902.63;5075715;28;1122;-27
2023/02/10 09:33:43;;;;;;;;;;;;;;;27.14;17.44;102907.38;5075777;28;1070;-26
2023/02/10 09:36:18;;;;;;;;;;;;;;;27.21;17.21;102904.19;5076027;28;1020;-28
2023/02/10 09:38:43;;;;;;;;;;;;;;;27.38;17.17;102903.56;5075693;28;1141;-27
2023/02/10 09:41:25;;;;;;;;;;;;;;;27.32;17.00;102905.94;5076043;28;1139;-27
2023/02/10 09:43:59;;;;;;;;;;;;;;;27.41;17.07;102901.59;5075593;28;1078;-28
2023/02/10 09:46:27;;;;;;;;;;;;;;;27.41;17.37;102896.19;5058036;28;1894;-25
2023/02/10 09:48:59;;;;;;;;;;;;;;;27.13;17.63;102904.81;5075830;28;1059;-27
2023/02/10 09:52:21;;;;;;;;;;;;;;;26.94;17.86;102892.84;5108867;27;2173;-23
2023/02/10 09:54:46;;;;;;;;;;;;;;;26.78;18.04;102888.72;5093712;28;1039;-24
2023/02/10 09:57:13;;;;;;;;;;;;;;;26.72;17.91;102880.28;5092245;28;1044;-23
2023/02/10 09:59:38;;;;;;;;;;;;;;;26.53;18.79;102873.72;5075714;28;1059;-23
2023/02/10 10:02:42;;;;;;;;;;;;;;;27.90;17.05;102874.81;5074511;28;1175;-24
2023/02/10 10:05:16;;;;;;;;;;;;;;;27.62;17.26;102864.59;4986615;28;1190;-25
2023/02/10 10:07:41;;;;;;;;;;;;;;;27.19;17.84;102861.06;4975511;28;1197;-23
2023/02/10 10:10:24;;;;;;;;;;;;;;;27.85;17.33;102861.72;5019671;28;1906;-23
2023/02/10 10:12:49;;;;;;;;;;;;;;;28.32;16.86;102864.81;5069995;28;1150;-23
2023/02/10 10:15:15;;;;;;;;;;;;;;;27.61;17.14;102856.63;5083620;28;1445;-24
2023/02/10 10:17:44;;;;;;;;;;;;;;;27.50;17.36;102850.31;5072830;28;1572;-26
2023/02/10 10:20:10;;;;;;;;;;;;;;;27.12;18.38;102852.66;5073249;28;1339;-23
2023/02/10 10:22:45;;;;;;;;;;;;;;;28.04;17.17;102846.56;5091497;28;1297;-24
2023/02/10 10:25:13;;;;;;;;;;;;;;;28.03;17.20;102844.81;5069541;28;1397;-23
2023/02/10 10:27:50;;;;;;;;;;;;;;;27.36;17.52;102842.56;5088229;28;1279;-24
2023/02/10 10:30:19;;;;;;;;;;;;;;;27.20;17.93;102841.16;5088665;28;1969;-23
2023/02/10 10:32:50;;;;;;;;;;;;;;;26.94;18.77;102835.28;5088514;28;1123;-23
2023/02/10 10:35:16;;;;;;;;;;;;;;;27.39;17.66;102835.00;5071483;28;1271;-24
2023/02/10 10:37:42;;;;;;;;;;;;;;;27.65;17.90;102827.44;5086018;28;1195;-27
2023/02/10 10:40:08;;;;;;;;;;;;;;;27.27;17.74;102830.69;5063756;28;1230;-25
2023/02/10 10:42:36;;;;;;;;;;;;;;;26.83;18.54;102822.66;5065315;28;1291;-27
2023/02/10 10:45:03;;;;;;;;;;;;;;;26.78;18.65;102817.66;5086343;28;1290;-24
2023/02/10 10:47:31;;;;;;;;;;;;;;;27.88;17.55;102817.31;5085945;28;1400;-25
2023/02/10 10:49:58;;;;;;;;;;;;;;;27.59;18.08;102805.34;5087319;28;1898;-22
2023/02/10 10:52:23;;;;;;;;;;;;;;;27.24;18.27;102807.47;5090832;28;1222;-27
2023/02/10 10:54:48;;;;;;;;;;;;;;;26.25;19.57;102803.13;5090705;28;1222;-25
2023/02/10 10:57:14;;;;;;;;;;;;;;;25.71;20.11;102806.50;5087547;28;1292;-25
2023/02/10 10:59:43;;;;;;;;;;;;;;;27.20;18.43;102806.03;5074223;28;1059;-24
2023/02/10 11:02:11;;;;;;;;;;;;;;;27.31;17.85;102810.50;5069974;28;1152;-24
2023/02/10 11:04:40;;;;;;;;;;;;;;;27.42;18.16;102796.06;5077599;28;1127;-24
2023/02/10 11:07:08;;;;;;;;;;;;;;;26.84;18.59;102800.94;5077998;28;1238;-23
2023/02/10 11:09:34;;;;;;;;;;;;;;;27.55;17.85;102792.25;5060489;28;1217;-25
2023/02/10 11:12:01;;;;;;;;;;;;;;;27.92;17.51;102802.53;5067399;28;1965;-23
2023/02/10 11:14:27;;;;;;;;;;;;;;;27.13;18.52;102788.63;5051311;28;1039;-23
2023/02/10 11:16:53;;;;;;;;;;;;;;;27.12;18.42;102786.94;5043182;28;891;-23
2023/02/10 11:19:22;;;;;;;;;;;;;;;25.61;20.00;102765.09;5058377;28;1171;-23
2023/02/10 11:21:48;;;;;;;;;;;;;;;27.51;18.30;102773.59;5066183;28;1051;-24
2023/02/10 11:24:19;;;;;;;;;;;;;;;27.32;18.38;102768.13;5075189;28;1266;-24
2023/02/10 11:26:53;;;;;;;;;;;;;;;26.79;18.88;102751.91;5064171;28;1227;-22
2023/02/10 11:29:18;;;;;;;;;;;;;;;26.63;19.08;102755.03;5064172;28;1148;-23
2023/02/10 11:31:44;;;;;;;;;;;;;;;27.33;18.75;102761.72;5074709;28;1949;-23
2023/02/10 11:34:28;;;;;;;;;;;;;;;27.40;18.23;102757.50;5044531;28;1215;-23
2023/02/10 11:36:53;;;;;;;;;;;;;;;27.24;18.80;102758.00;5077720;28;1114;-22
2023/02/10 11:39:35;;;;;;;;;;;;;;;27.57;18.96;102760.53;5077712;28;1063;-23
2023/02/10 11:42:11;;;;;;;;;;;;;;;27.54;18.21;102761.69;5059945;28;1020;-23
2023/02/10 11:44:36;;;;;;;;;;;;;;;27.28;18.32;102747.78;5071369;28;1036;-24
2023/02/10 11:47:02;;;;;;;;;;;;;;;26.25;19.83;102754.56;5068835;28;1277;-25
2023/02/10 11:49:31;;;;;;;;;;;;;;;26.60;19.73;102745.38;5065105;28;1055;-23
2023/02/10 11:51:56;;;;;;;;;;;;;;;27.16;19.13;102752.41;5075235;28;1921;-23
2023/02/10 11:54:23;;;;;;;;;;;;;;;27.24;18.47;102744.50;5072751;28;1024;-24
2023/02/10 12:00:12;;;;;;;;;;;;;;;25.75;20.77;102743.31;5067885;28;1092;-23
2023/02/10 12:02:37;;;;;;;;;;;;;;;26.00;20.22;102743.97;5058077;28;1236;-23
2023/02/10 12:05:35;;;;;;;;;;;;;;;27.25;18.65;102738.09;5076924;28;893;-23
2023/02/10 12:08:04;;;;;;;;;;;;;;;27.09;18.67;102730.50;5032867;28;1232;-23
2023/02/10 12:10:39;;;;;;;;;;;;;;;25.67;20.55;102734.97;5048168;28;2021;-26
2023/02/10 12:13:26;;;;;;;;;;;;;;;26.69;19.38;102732.94;5071537;28;1163;-27
2023/02/10 12:16:10;;;;;;;;;;;;;;;27.23;18.56;102730.13;5039620;28;1250;-25
2023/02/10 12:18:40;;;;;;;;;;;;;;;27.20;18.43;102726.81;5074389;28;1130;-23
2023/02/10 12:21:17;;;;;;;;;;;;;;;25.89;20.36;102723.28;5051414;28;1060;-23
2023/02/10 12:23:58;;;;;;;;;;;;;;;27.68;18.88;102724.41;5066055;28;1279;-24
2023/02/10 12:26:33;;;;;;;;;;;;;;;27.36;18.13;102720.94;5074524;28;1078;-24
2023/02/10 12:29:02;;;;;;;;;;;;;;;26.61;19.31;102721.94;5065558;28;1183;-25
2023/02/10 12:31:36;;;;;;;;;;;;;;;25.63;20.83;102728.13;5076628;28;1902;-23
2023/02/10 12:34:10;;;;;;;;;;;;;;;25.66;20.83;102723.34;5070450;28;1227;-23
2023/02/10 12:36:36;;;;;;;;;;;;;;;26.04;20.83;102723.84;5070141;28;1219;-25
2023/02/10 12:39:34;;;;;;;;;;;;;;;26.15;20.53;102733.75;5057036;28;1122;-25
2023/02/10 12:42:08;;;;;;;;;;;;;;;27.04;19.04;102727.34;5021923;28;1235;-23
2023/02/10 12:44:38;;;;;;;;;;;;;;;27.83;18.14;102731.19;5067136;28;1123;-24
2023/02/10 12:47:07;;;;;;;;;;;;;;;27.11;18.82;102723.09;5038572;28;1081;-24
2023/02/10 12:49:51;;;;;;;;;;;;;;;27.15;19.03;102724.53;5050255;28;1069;-23
2023/02/10 12:52:36;;;;;;;;;;;;;;;27.57;18.48;102731.66;5066389;28;1988;-24